METAR Data
IDs: Format: Raw Decoded Include TAF

Data at: 1647 UTC 18 Feb 2019

METAR for:KAMW (Ames Muni, IA, US)
Text:KAMW 181553Z AUTO 31006KT 10SM CLR M11/M14 A3044 RMK AO2 SLP321 T11061139
Temperature:-10.6°C ( 13°F)
Dewpoint:-13.9°C ( 7°F) [RH = 77%]
Pressure (altimeter):30.44 inches Hg (1030.9 mb) [Sea level pressure: 1032.1 mb]
Winds:from the NW (310 degrees) at 7 MPH (6 knots; 3.1 m/s)
Visibility:10 or more sm (16+ km)
Ceiling:at least 12,000 feet AGL
Clouds:sky clear below 12,000 feet AGL
QC Flag:automated observation with no human augmentation